createdAt,value
2022-10-18T00:04:41.383Z,3.70
2022-10-18T00:09:43.895Z,3.10
2022-10-18T00:14:49.637Z,3.22
2022-10-18T00:19:53.724Z,3.78
2022-10-18T00:24:56.234Z,3.60
2022-10-18T00:29:59.329Z,3.00
2022-10-18T00:35:03.433Z,3.30
2022-10-18T00:40:07.187Z,3.20
2022-10-18T00:45:20.015Z,3.20
2022-10-18T00:50:25.334Z,3.15
2022-10-18T00:55:29.447Z,3.35
2022-10-18T01:00:32.183Z,3.42
2022-10-18T01:05:39.297Z,3.50
2022-10-18T01:10:50.901Z,3.53
2022-10-18T01:16:00.754Z,3.78
2022-10-18T01:21:24.081Z,3.53
2022-10-18T01:26:40.658Z,3.38
2022-10-18T01:31:48.982Z,3.47
2022-10-18T01:36:55.141Z,3.75
2022-10-18T01:42:01.042Z,3.58
2022-10-18T01:47:08.118Z,3.95
2022-10-18T01:52:13.320Z,3.53
2022-10-18T01:57:25.774Z,3.63
2022-10-18T02:02:42.164Z,3.92
2022-10-18T02:08:00.173Z,3.80
2022-10-18T02:13:17.049Z,3.28
2022-10-18T02:18:26.378Z,3.55
2022-10-18T02:23:29.193Z,3.70
2022-10-18T02:28:32.522Z,3.60
2022-10-18T02:33:44.431Z,3.83
2022-10-18T02:38:48.348Z,3.70
2022-10-18T02:43:50.923Z,3.80
2022-10-18T02:48:54.835Z,3.63
2022-10-18T02:53:57.379Z,3.92
2022-10-18T02:59:00.049Z,4.03
2022-10-18T03:04:05.070Z,3.47
2022-10-18T03:09:08.362Z,3.22
2022-10-18T03:14:10.983Z,3.60
2022-10-18T03:19:15.136Z,3.35
2022-10-18T03:24:18.164Z,4.53
2022-10-18T03:29:20.812Z,3.95
2022-10-18T03:34:24.850Z,3.60
2022-10-18T03:39:27.465Z,3.50
2022-10-18T03:44:30.083Z,3.10
2022-10-18T03:54:41.610Z,3.63
2022-10-18T03:59:44.438Z,3.75
2022-10-18T04:04:48.327Z,4.78
2022-10-18T04:09:50.961Z,4.13
2022-10-18T04:14:55.397Z,3.60
2022-10-18T04:19:59.600Z,3.80
2022-10-18T04:25:02.279Z,4.20
2022-10-18T04:30:05.837Z,3.90
2022-10-18T04:35:11.438Z,4.10
2022-10-18T04:40:13.989Z,4.18
2022-10-18T04:45:16.944Z,4.20
2022-10-18T04:50:21.114Z,3.85
2022-10-18T04:55:23.701Z,4.18
2022-10-18T05:00:26.456Z,4.07
2022-10-18T05:05:49.841Z,4.28
2022-10-18T05:10:53.077Z,4.38
2022-10-18T05:15:55.876Z,4.55
2022-10-18T05:21:00.219Z,4.00
2022-10-18T05:31:07.939Z,4.65
2022-10-18T05:36:12.154Z,4.78
2022-10-18T05:46:20.084Z,4.82
2022-10-18T05:51:26.601Z,4.95
2022-10-18T05:56:31.626Z,4.30
2022-10-18T06:01:34.293Z,5.03
2022-10-18T06:06:38.607Z,4.90
2022-10-18T06:16:43.817Z,5.75
2022-10-18T06:21:47.923Z,5.50
2022-10-18T06:26:50.939Z,6.80
2022-10-18T06:31:53.521Z,10.82
2022-10-18T06:36:58.779Z,14.18
2022-10-18T06:42:01.472Z,13.75
2022-10-18T06:47:04.220Z,13.45
2022-10-18T06:52:08.366Z,13.57
2022-10-18T06:57:11.250Z,11.77
2022-10-18T07:02:16.713Z,9.65
2022-10-18T07:07:21.452Z,13.07
2022-10-18T07:12:23.974Z,11.52
2022-10-18T07:17:26.567Z,15.65
2022-10-18T07:22:30.631Z,19.38
2022-10-18T07:27:36.782Z,18.92
2022-10-18T07:32:39.340Z,17.85
2022-10-18T07:37:47.215Z,17.48
2022-10-18T07:42:49.908Z,16.85
2022-10-18T07:47:55.730Z,12.95
2022-10-18T07:52:59.657Z,11.02
2022-10-18T07:58:02.383Z,9.45
2022-10-18T08:03:05.437Z,9.70
2022-10-18T08:08:09.349Z,9.38
2022-10-18T08:13:11.893Z,9.13
2022-10-18T08:18:14.622Z,7.63
2022-10-18T08:23:19.665Z,8.45
2022-10-18T08:28:22.318Z,8.30
2022-10-18T08:33:24.880Z,8.07
2022-10-18T08:38:30.644Z,7.45
2022-10-18T08:43:39.669Z,6.38
2022-10-18T08:48:46.332Z,6.13
2022-10-18T08:53:58.001Z,5.50
2022-10-18T08:59:03.126Z,6.18
2022-10-18T09:04:20.396Z,7.10
2022-10-18T09:09:47.618Z,6.72
2022-10-18T09:15:05.478Z,6.28
2022-10-18T09:20:21.863Z,5.18
2022-10-18T09:25:28.511Z,5.22
2022-10-18T09:30:41.654Z,5.60
2022-10-18T09:35:50.514Z,6.03
2022-10-18T09:40:59.027Z,6.13
2022-10-18T09:46:03.185Z,7.20
2022-10-18T09:51:12.179Z,7.50
2022-10-18T09:56:20.855Z,6.40
2022-10-18T10:01:26.314Z,5.55
2022-10-18T10:06:30.548Z,5.43
2022-10-18T10:16:49.691Z,5.88
2022-10-18T10:21:57.727Z,6.05
2022-10-18T10:27:04.138Z,6.00
2022-10-18T10:32:06.708Z,7.65
2022-10-18T10:37:26.142Z,6.97
2022-10-18T10:42:31.223Z,7.32
2022-10-18T10:47:35.382Z,7.95
2022-10-18T10:52:41.353Z,7.78
2022-10-18T10:57:47.099Z,5.95
2022-10-18T11:02:59.329Z,5.40
2022-10-18T11:08:14.527Z,4.88
2022-10-18T11:13:29.127Z,4.90
2022-10-18T11:18:35.054Z,3.58
2022-10-18T11:23:40.214Z,5.15
2022-10-18T11:29:02.182Z,4.80
2022-10-18T11:34:20.757Z,5.60
2022-10-18T11:39:31.037Z,6.35
2022-10-18T11:44:40.776Z,6.13
2022-10-18T11:49:58.393Z,6.43
2022-10-18T11:55:13.509Z,4.70
2022-10-18T12:05:39.310Z,2.95
2022-10-18T12:11:03.518Z,2.92
2022-10-18T12:16:12.523Z,2.30
2022-10-18T12:21:15.245Z,1.85
2022-10-18T12:26:18.786Z,1.83
2022-10-18T12:31:27.447Z,1.63
2022-10-18T12:36:54.992Z,1.85
2022-10-18T12:41:58.538Z,2.08
2022-10-18T12:47:05.428Z,1.88
2022-10-18T12:52:21.602Z,2.15
2022-10-18T12:57:26.160Z,2.40
2022-10-18T13:02:32.344Z,2.13
2022-10-18T13:07:43.255Z,1.60
2022-10-18T13:12:59.573Z,2.10
2022-10-18T13:18:15.775Z,2.22
2022-10-18T13:23:41.311Z,2.58
2022-10-18T13:28:54.381Z,1.92
2022-10-18T13:34:19.109Z,2.00
2022-10-18T13:39:23.251Z,1.60
2022-10-18T13:49:45.739Z,1.38
2022-10-18T13:55:02.017Z,1.00
2022-10-18T14:00:18.275Z,1.08
2022-10-18T14:05:54.649Z,1.00
2022-10-18T14:11:05.787Z,1.00
2022-10-18T14:16:25.398Z,1.65
2022-10-18T14:21:38.212Z,1.20
2022-10-18T14:26:41.354Z,1.10
2022-10-18T14:31:44.488Z,1.42
2022-10-18T14:36:50.075Z,2.00
2022-10-18T14:41:55.070Z,2.50
2022-10-18T14:47:02.656Z,3.10
2022-10-18T14:52:09.556Z,3.80
2022-10-18T14:57:19.434Z,4.03
2022-10-18T15:02:24.978Z,5.22
2022-10-18T15:07:30.348Z,5.20
2022-10-18T15:12:37.081Z,5.03
2022-10-18T15:17:44.672Z,4.05
2022-10-18T15:22:48.894Z,4.88
2022-10-18T15:27:53.899Z,4.78
2022-10-18T15:32:58.796Z,4.70
2022-10-18T15:38:15.032Z,5.38
2022-10-18T15:43:37.848Z,5.97
2022-10-18T15:48:42.025Z,6.35
2022-10-18T15:58:56.915Z,7.13
2022-10-18T16:04:02.371Z,6.70
2022-10-18T16:09:14.119Z,7.15
2022-10-18T16:14:16.949Z,7.80
2022-10-18T16:19:21.949Z,7.88
2022-10-18T16:24:25.910Z,6.80
2022-10-18T16:29:32.221Z,7.90
2022-10-18T16:34:34.830Z,7.10
2022-10-18T16:39:38.734Z,7.43
2022-10-18T16:44:41.253Z,6.43
2022-10-18T16:49:45.125Z,5.63
2022-10-18T16:54:49.624Z,5.32
2022-10-18T16:59:52.429Z,4.18
2022-10-18T17:04:55.140Z,4.57
2022-10-18T17:09:59.056Z,5.10
2022-10-18T17:15:01.691Z,5.07
2022-10-18T17:20:06.582Z,5.50
2022-10-18T17:25:11.747Z,5.78
2022-10-18T17:30:15.495Z,5.35
2022-10-18T17:35:19.000Z,5.97
2022-10-18T17:40:23.994Z,7.30
2022-10-18T17:45:27.199Z,7.25
2022-10-18T17:50:30.167Z,6.55
2022-10-18T17:55:34.984Z,7.03
2022-10-18T18:00:37.631Z,7.38
2022-10-18T18:05:42.288Z,7.78
2022-10-18T18:10:46.570Z,25.20
2022-10-18T18:20:55.040Z,8.82
2022-10-18T18:25:59.931Z,7.00
2022-10-18T18:31:06.708Z,8.93
2022-10-18T18:36:10.363Z,8.05
2022-10-18T18:41:17.840Z,8.63
2022-10-18T18:46:20.592Z,9.07
2022-10-18T18:51:24.659Z,7.82
2022-10-18T18:56:29.792Z,8.23
2022-10-18T19:01:34.287Z,8.73
2022-10-18T19:06:38.930Z,8.70
2022-10-18T19:11:42.906Z,8.43
2022-10-18T19:16:48.546Z,9.07
2022-10-18T19:21:53.034Z,9.35
2022-10-18T19:26:59.109Z,9.60
2022-10-18T19:32:03.968Z,9.57
2022-10-18T19:37:06.662Z,9.45
2022-10-18T19:42:15.762Z,9.75
2022-10-18T19:47:21.502Z,9.60
2022-10-18T19:52:24.068Z,9.68
2022-10-18T19:57:28.817Z,10.75
2022-10-18T20:02:31.830Z,10.70
2022-10-18T20:07:34.612Z,10.85
2022-10-18T20:12:38.669Z,13.18
2022-10-18T20:17:41.720Z,13.32
2022-10-18T20:22:44.356Z,12.60
2022-10-18T20:27:48.343Z,12.75
2022-10-18T20:32:52.548Z,12.27
2022-10-18T20:37:55.114Z,13.25
2022-10-18T20:43:03.618Z,13.77
2022-10-18T20:48:06.719Z,12.95
2022-10-18T20:53:09.424Z,11.50
2022-10-18T20:58:13.987Z,11.43
2022-10-18T21:03:16.560Z,11.55
2022-10-18T21:08:19.124Z,11.63
2022-10-18T21:13:23.376Z,10.30
2022-10-18T21:18:26.559Z,10.45
2022-10-18T21:23:29.190Z,10.70
2022-10-18T21:28:33.276Z,10.60
2022-10-18T21:33:35.922Z,11.10
2022-10-18T21:38:39.004Z,10.32
2022-10-18T21:43:44.690Z,10.07
2022-10-18T21:48:49.019Z,9.70
2022-10-18T21:53:54.370Z,9.25
2022-10-18T21:58:59.085Z,8.35
2022-10-18T22:04:02.821Z,8.63
2022-10-18T22:09:08.708Z,7.20
2022-10-18T22:14:12.947Z,7.35
2022-10-18T22:19:15.667Z,6.63
2022-10-18T22:24:18.471Z,8.32
2022-10-18T22:29:22.727Z,7.80
2022-10-18T22:34:27.726Z,5.75
2022-10-18T22:39:30.444Z,8.15
2022-10-18T22:44:34.986Z,8.38
2022-10-18T22:54:40.057Z,8.13
2022-10-18T22:59:44.065Z,9.00
2022-10-18T23:04:46.632Z,8.63
2022-10-18T23:09:49.184Z,7.57
2022-10-18T23:14:53.102Z,7.95
2022-10-18T23:19:56.056Z,8.43
2022-10-18T23:24:58.686Z,7.85
2022-10-18T23:30:02.986Z,7.80
2022-10-18T23:35:06.410Z,5.70
2022-10-18T23:40:10.714Z,7.90
2022-10-18T23:45:14.650Z,5.95
2022-10-18T23:50:17.437Z,8.40
2022-10-18T23:55:20.325Z,7.65
